sensor_id;sensor_type;location;lat;lon;timestamp;pressure;altitude;pressure_sealevel;temperature;humidity
64238;BME280;57192;41.976;2.828;2022-08-20T00:00:25;59338.97;;;-144.63;100.00
64238;BME280;57192;41.976;2.828;2022-08-20T00:02:59;59338.97;;;-144.63;100.00
64238;BME280;57192;41.976;2.828;2022-08-20T00:05:32;59338.97;;;-144.63;100.00
64238;BME280;57192;41.976;2.828;2022-08-20T00:07:59;59338.97;;;-144.63;100.00
64238;BME280;57192;41.976;2.828;2022-08-20T00:10:26;59338.97;;;-144.63;100.00
64238;BME280;57192;41.976;2.828;2022-08-20T00:12:53;59338.97;;;-144.63;100.00
64238;BME280;57192;41.976;2.828;2022-08-20T00:15:24;59338.97;;;-144.63;100.00
64238;BME280;57192;41.976;2.828;2022-08-20T00:17:51;59338.97;;;-144.63;100.00
64238;BME280;57192;41.976;2.828;2022-08-20T00:20:19;59338.97;;;-144.63;100.00
64238;BME280;57192;41.976;2.828;2022-08-20T00:22:45;59338.97;;;-144.63;100.00
64238;BME280;57192;41.976;2.828;2022-08-20T00:25:12;59338.97;;;-144.63;100.00
64238;BME280;57192;41.976;2.828;2022-08-20T00:27:37;59338.97;;;-144.63;100.00
64238;BME280;57192;41.976;2.828;2022-08-20T00:30:05;59338.97;;;-144.63;100.00
64238;BME280;57192;41.976;2.828;2022-08-20T00:32:51;59338.97;;;-144.63;100.00
64238;BME280;57192;41.976;2.828;2022-08-20T00:35:19;59338.97;;;-144.63;100.00
64238;BME280;57192;41.976;2.828;2022-08-20T00:37:44;59338.97;;;-144.63;100.00
64238;BME280;57192;41.976;2.828;2022-08-20T00:40:13;59338.97;;;-144.63;100.00
64238;BME280;57192;41.976;2.828;2022-08-20T00:42:45;59338.97;;;-144.63;100.00
64238;BME280;57192;41.976;2.828;2022-08-20T00:45:11;59338.97;;;-144.63;100.00
64238;BME280;57192;41.976;2.828;2022-08-20T00:47:38;59338.97;;;-144.63;100.00
64238;BME280;57192;41.976;2.828;2022-08-20T00:50:14;59338.97;;;-144.63;100.00
64238;BME280;57192;41.976;2.828;2022-08-20T00:52:42;59338.97;;;-144.63;100.00
64238;BME280;57192;41.976;2.828;2022-08-20T00:55:10;59338.97;;;-144.63;100.00
64238;BME280;57192;41.976;2.828;2022-08-20T00:57:39;59338.97;;;-144.63;100.00
64238;BME280;57192;41.976;2.828;2022-08-20T01:00:21;59338.97;;;-144.63;100.00
64238;BME280;57192;41.976;2.828;2022-08-20T01:02:48;59338.97;;;-144.63;100.00
64238;BME280;57192;41.976;2.828;2022-08-20T01:05:15;59338.97;;;-144.63;100.00
64238;BME280;57192;41.976;2.828;2022-08-20T01:07:41;59338.97;;;-144.63;100.00
64238;BME280;57192;41.976;2.828;2022-08-20T01:10:21;59338.97;;;-144.63;100.00
64238;BME280;57192;41.976;2.828;2022-08-20T01:12:49;59338.97;;;-144.63;100.00
64238;BME280;57192;41.976;2.828;2022-08-20T01:15:17;59338.97;;;-144.63;100.00
64238;BME280;57192;41.976;2.828;2022-08-20T01:17:46;59338.97;;;-144.63;100.00
64238;BME280;57192;41.976;2.828;2022-08-20T01:20:20;59338.97;;;-144.63;100.00
64238;BME280;57192;41.976;2.828;2022-08-20T01:26:10;59338.97;;;-144.63;100.00
64238;BME280;57192;41.976;2.828;2022-08-20T01:29:11;59338.97;;;-144.63;100.00
64238;BME280;57192;41.976;2.828;2022-08-20T01:31:37;59338.97;;;-144.63;100.00
64238;BME280;57192;41.976;2.828;2022-08-20T01:34:06;59338.97;;;-144.63;100.00
64238;BME280;57192;41.976;2.828;2022-08-20T01:36:39;59338.97;;;-144.63;100.00
64238;BME280;57192;41.976;2.828;2022-08-20T01:39:08;59338.97;;;-144.63;100.00
64238;BME280;57192;41.976;2.828;2022-08-20T01:44:32;59338.97;;;-144.63;100.00
64238;BME280;57192;41.976;2.828;2022-08-20T01:47:07;59338.97;;;-144.63;100.00
64238;BME280;57192;41.976;2.828;2022-08-20T01:49:33;59338.97;;;-144.63;100.00
64238;BME280;57192;41.976;2.828;2022-08-20T01:52:00;59338.97;;;-144.63;100.00
64238;BME280;57192;41.976;2.828;2022-08-20T01:54:27;59338.97;;;-144.63;100.00
64238;BME280;57192;41.976;2.828;2022-08-20T01:59:21;59338.97;;;-144.63;100.00
64238;BME280;57192;41.976;2.828;2022-08-20T02:01:48;59338.97;;;-144.63;100.00
64238;BME280;57192;41.976;2.828;2022-08-20T02:04:14;59338.97;;;-144.63;100.00
64238;BME280;57192;41.976;2.828;2022-08-20T02:06:44;59338.97;;;-144.63;100.00
64238;BME280;57192;41.976;2.828;2022-08-20T02:09:10;59338.97;;;-144.63;100.00
64238;BME280;57192;41.976;2.828;2022-08-20T02:11:37;59338.97;;;-144.63;100.00
64238;BME280;57192;41.976;2.828;2022-08-20T02:14:05;59338.97;;;-144.63;100.00
64238;BME280;57192;41.976;2.828;2022-08-20T02:16:35;59338.97;;;-144.63;100.00
64238;BME280;57192;41.976;2.828;2022-08-20T02:19:07;59338.97;;;-144.63;100.00
64238;BME280;57192;41.976;2.828;2022-08-20T02:21:39;59338.97;;;-144.63;100.00
64238;BME280;57192;41.976;2.828;2022-08-20T02:24:06;59338.97;;;-144.63;100.00
64238;BME280;57192;41.976;2.828;2022-08-20T02:26:32;59338.97;;;-144.63;100.00
64238;BME280;57192;41.976;2.828;2022-08-20T02:28:57;59338.97;;;-144.63;100.00
64238;BME280;57192;41.976;2.828;2022-08-20T02:31:24;59338.97;;;-144.63;100.00
64238;BME280;57192;41.976;2.828;2022-08-20T02:33:50;59338.97;;;-144.63;100.00
64238;BME280;57192;41.976;2.828;2022-08-20T02:36:17;59338.97;;;-144.63;100.00
64238;BME280;57192;41.976;2.828;2022-08-20T02:38:44;59338.97;;;-144.63;100.00
64238;BME280;57192;41.976;2.828;2022-08-20T02:41:10;59338.97;;;-144.63;100.00
64238;BME280;57192;41.976;2.828;2022-08-20T02:43:37;59338.97;;;-144.63;100.00
64238;BME280;57192;41.976;2.828;2022-08-20T02:46:04;59338.97;;;-144.63;100.00
64238;BME280;57192;41.976;2.828;2022-08-20T02:48:31;59338.97;;;-144.63;100.00
64238;BME280;57192;41.976;2.828;2022-08-20T02:51:03;59338.97;;;-144.63;100.00
64238;BME280;57192;41.976;2.828;2022-08-20T02:53:31;59338.97;;;-144.63;100.00
64238;BME280;57192;41.976;2.828;2022-08-20T02:55:57;59338.97;;;-144.63;100.00
64238;BME280;57192;41.976;2.828;2022-08-20T02:58:23;59338.97;;;-144.63;100.00
64238;BME280;57192;41.976;2.828;2022-08-20T03:00:49;59338.97;;;-144.63;100.00
64238;BME280;57192;41.976;2.828;2022-08-20T03:03:15;59338.97;;;-144.63;100.00
64238;BME280;57192;41.976;2.828;2022-08-20T03:05:46;59338.97;;;-144.63;100.00
64238;BME280;57192;41.976;2.828;2022-08-20T03:08:13;59338.97;;;-144.63;100.00
64238;BME280;57192;41.976;2.828;2022-08-20T03:10:41;59338.97;;;-144.63;100.00
64238;BME280;57192;41.976;2.828;2022-08-20T03:13:07;59338.97;;;-144.63;100.00
64238;BME280;57192;41.976;2.828;2022-08-20T03:15:37;59338.97;;;-144.63;100.00
64238;BME280;57192;41.976;2.828;2022-08-20T03:18:03;59338.97;;;-144.63;100.00
64238;BME280;57192;41.976;2.828;2022-08-20T03:20:28;59338.97;;;-144.63;100.00
64238;BME280;57192;41.976;2.828;2022-08-20T03:22:55;59338.97;;;-144.63;100.00
64238;BME280;57192;41.976;2.828;2022-08-20T03:25:21;59338.97;;;-144.63;100.00
64238;BME280;57192;41.976;2.828;2022-08-20T03:27:46;59338.97;;;-144.63;100.00
64238;BME280;57192;41.976;2.828;2022-08-20T03:30:14;59338.97;;;-144.63;100.00
64238;BME280;57192;41.976;2.828;2022-08-20T03:32:40;59338.97;;;-144.63;100.00
64238;BME280;57192;41.976;2.828;2022-08-20T03:35:08;59338.97;;;-144.63;100.00
64238;BME280;57192;41.976;2.828;2022-08-20T03:37:36;59338.97;;;-144.63;100.00
64238;BME280;57192;41.976;2.828;2022-08-20T03:40:04;59338.97;;;-144.63;100.00
64238;BME280;57192;41.976;2.828;2022-08-20T03:42:30;59338.97;;;-144.63;100.00
64238;BME280;57192;41.976;2.828;2022-08-20T03:44:55;59338.97;;;-144.63;100.00
64238;BME280;57192;41.976;2.828;2022-08-20T03:47:21;59338.97;;;-144.63;100.00
64238;BME280;57192;41.976;2.828;2022-08-20T03:49:47;59338.97;;;-144.63;100.00
64238;BME280;57192;41.976;2.828;2022-08-20T03:52:12;59338.97;;;-144.63;100.00
64238;BME280;57192;41.976;2.828;2022-08-20T03:54:38;59338.97;;;-144.63;100.00
64238;BME280;57192;41.976;2.828;2022-08-20T03:57:04;59338.97;;;-144.63;100.00
64238;BME280;57192;41.976;2.828;2022-08-20T03:59:30;59338.97;;;-144.63;100.00
64238;BME280;57192;41.976;2.828;2022-08-20T04:01:59;59338.97;;;-144.63;100.00
64238;BME280;57192;41.976;2.828;2022-08-20T04:04:25;59338.97;;;-144.63;100.00
64238;BME280;57192;41.976;2.828;2022-08-20T04:06:50;59338.97;;;-144.63;100.00
64238;BME280;57192;41.976;2.828;2022-08-20T04:09:16;59338.97;;;-144.63;100.00
64238;BME280;57192;41.976;2.828;2022-08-20T04:11:42;59338.97;;;-144.63;100.00
64238;BME280;57192;41.976;2.828;2022-08-20T04:14:08;59338.97;;;-144.63;100.00
64238;BME280;57192;41.976;2.828;2022-08-20T04:16:35;59338.97;;;-144.63;100.00
64238;BME280;57192;41.976;2.828;2022-08-20T04:19:01;59338.97;;;-144.63;100.00
64238;BME280;57192;41.976;2.828;2022-08-20T04:21:33;59338.97;;;-144.63;100.00
64238;BME280;57192;41.976;2.828;2022-08-20T04:24:04;59338.97;;;-144.63;100.00
64238;BME280;57192;41.976;2.828;2022-08-20T04:26:30;59338.97;;;-144.63;100.00
64238;BME280;57192;41.976;2.828;2022-08-20T04:28:56;59338.97;;;-144.63;100.00
64238;BME280;57192;41.976;2.828;2022-08-20T04:31:21;59338.97;;;-144.63;100.00
64238;BME280;57192;41.976;2.828;2022-08-20T04:33:57;59338.97;;;-144.63;100.00
64238;BME280;57192;41.976;2.828;2022-08-20T04:36:23;59338.97;;;-144.63;100.00
64238;BME280;57192;41.976;2.828;2022-08-20T04:38:48;59338.97;;;-144.63;100.00
64238;BME280;57192;41.976;2.828;2022-08-20T04:41:14;59338.97;;;-144.63;100.00
64238;BME280;57192;41.976;2.828;2022-08-20T04:43:39;59338.97;;;-144.63;100.00
64238;BME280;57192;41.976;2.828;2022-08-20T04:46:07;59338.97;;;-144.63;100.00
64238;BME280;57192;41.976;2.828;2022-08-20T04:48:36;59338.97;;;-144.63;100.00
64238;BME280;57192;41.976;2.828;2022-08-20T04:51:06;59338.97;;;-144.63;100.00
64238;BME280;57192;41.976;2.828;2022-08-20T04:53:32;59338.97;;;-144.63;100.00
64238;BME280;57192;41.976;2.828;2022-08-20T04:55:59;59338.97;;;-144.63;100.00
64238;BME280;57192;41.976;2.828;2022-08-20T04:58:28;59338.97;;;-144.63;100.00
64238;BME280;57192;41.976;2.828;2022-08-20T05:00:56;59338.97;;;-144.63;100.00
64238;BME280;57192;41.976;2.828;2022-08-20T05:03:23;59338.97;;;-144.63;100.00
64238;BME280;57192;41.976;2.828;2022-08-20T05:05:49;59338.97;;;-144.63;100.00
64238;BME280;57192;41.976;2.828;2022-08-20T05:08:15;59338.97;;;-144.63;100.00
64238;BME280;57192;41.976;2.828;2022-08-20T05:10:42;59338.97;;;-144.63;100.00
64238;BME280;57192;41.976;2.828;2022-08-20T05:13:07;59338.97;;;-144.63;100.00
64238;BME280;57192;41.976;2.828;2022-08-20T05:15:34;59338.97;;;-144.63;100.00
64238;BME280;57192;41.976;2.828;2022-08-20T05:18:01;59338.97;;;-144.63;100.00
64238;BME280;57192;41.976;2.828;2022-08-20T05:20:32;59338.97;;;-144.63;100.00
64238;BME280;57192;41.976;2.828;2022-08-20T05:22:59;59338.97;;;-144.63;100.00
64238;BME280;57192;41.976;2.828;2022-08-20T05:25:26;59338.97;;;-144.63;100.00
64238;BME280;57192;41.976;2.828;2022-08-20T05:28:07;59338.97;;;-144.63;100.00
64238;BME280;57192;41.976;2.828;2022-08-20T05:30:39;59338.97;;;-144.63;100.00
64238;BME280;57192;41.976;2.828;2022-08-20T05:33:12;59338.97;;;-144.63;100.00
64238;BME280;57192;41.976;2.828;2022-08-20T05:35:41;59338.97;;;-144.63;100.00
64238;BME280;57192;41.976;2.828;2022-08-20T05:38:10;59338.97;;;-144.63;100.00
64238;BME280;57192;41.976;2.828;2022-08-20T05:40:36;59338.97;;;-144.63;100.00
64238;BME280;57192;41.976;2.828;2022-08-20T05:43:02;59338.97;;;-144.63;100.00
64238;BME280;57192;41.976;2.828;2022-08-20T05:45:30;59338.97;;;-144.63;100.00
64238;BME280;57192;41.976;2.828;2022-08-20T05:47:56;59338.97;;;-144.63;100.00
64238;BME280;57192;41.976;2.828;2022-08-20T05:50:23;59338.97;;;-144.63;100.00
64238;BME280;57192;41.976;2.828;2022-08-20T05:52:49;59338.97;;;-144.63;100.00
64238;BME280;57192;41.976;2.828;2022-08-20T05:55:15;59338.97;;;-144.63;100.00
64238;BME280;57192;41.976;2.828;2022-08-20T05:57:41;59338.97;;;-144.63;100.00
64238;BME280;57192;41.976;2.828;2022-08-20T06:00:10;59338.97;;;-144.63;100.00
64238;BME280;57192;41.976;2.828;2022-08-20T06:02:37;59338.97;;;-144.63;100.00
64238;BME280;57192;41.976;2.828;2022-08-20T06:05:21;59338.97;;;-144.63;100.00
64238;BME280;57192;41.976;2.828;2022-08-20T06:07:47;59338.97;;;-144.63;100.00
64238;BME280;57192;41.976;2.828;2022-08-20T06:10:15;59338.97;;;-144.63;100.00
64238;BME280;57192;41.976;2.828;2022-08-20T06:12:40;59338.97;;;-144.63;100.00
64238;BME280;57192;41.976;2.828;2022-08-20T06:15:07;59338.97;;;-144.63;100.00
64238;BME280;57192;41.976;2.828;2022-08-20T06:17:33;59338.97;;;-144.63;100.00
64238;BME280;57192;41.976;2.828;2022-08-20T06:20:02;59338.97;;;-144.63;100.00
64238;BME280;57192;41.976;2.828;2022-08-20T06:22:28;59338.97;;;-144.63;100.00
64238;BME280;57192;41.976;2.828;2022-08-20T06:24:53;59338.97;;;-144.63;100.00
64238;BME280;57192;41.976;2.828;2022-08-20T06:27:20;59338.97;;;-144.63;100.00
64238;BME280;57192;41.976;2.828;2022-08-20T06:29:46;59338.97;;;-144.63;100.00
64238;BME280;57192;41.976;2.828;2022-08-20T06:32:12;59338.97;;;-144.63;100.00
64238;BME280;57192;41.976;2.828;2022-08-20T06:34:38;59338.97;;;-144.63;100.00
64238;BME280;57192;41.976;2.828;2022-08-20T06:37:13;100990.66;;;30.82;41.97
64238;BME280;57192;41.976;2.828;2022-08-20T06:39:40;100991.28;;;33.02;37.38
64238;BME280;57192;41.976;2.828;2022-08-20T06:42:06;100994.56;;;34.94;33.25
64238;BME280;57192;41.976;2.828;2022-08-20T06:44:31;101004.31;;;36.51;30.72
64238;BME280;57192;41.976;2.828;2022-08-20T06:47:00;101005.53;;;37.97;28.23
64238;BME280;57192;41.976;2.828;2022-08-20T06:49:28;100998.94;;;39.22;26.15
64238;BME280;57192;41.976;2.828;2022-08-20T06:51:54;100999.78;;;40.32;24.63
64238;BME280;57192;41.976;2.828;2022-08-20T06:54:19;100999.44;;;41.35;23.49
64238;BME280;57192;41.976;2.828;2022-08-20T06:56:45;101008.75;;;42.11;22.19
64238;BME280;57192;41.976;2.828;2022-08-20T06:59:10;100997.94;;;42.84;20.84
64238;BME280;57192;41.976;2.828;2022-08-20T07:01:36;100993.03;;;43.54;20.56
64238;BME280;57192;41.976;2.828;2022-08-20T07:04:01;100994.84;;;44.07;19.38
64238;BME280;57192;41.976;2.828;2022-08-20T07:06:27;100988.16;;;44.59;18.58
64238;BME280;57192;41.976;2.828;2022-08-20T07:08:53;100980.78;;;45.14;18.06
64238;BME280;57192;41.976;2.828;2022-08-20T07:11:19;100990.13;;;45.64;17.27
64238;BME280;57192;41.976;2.828;2022-08-20T07:13:45;100988.22;;;46.04;16.71
64238;BME280;57192;41.976;2.828;2022-08-20T07:16:10;100981.81;;;46.32;15.89
64238;BME280;57192;41.976;2.828;2022-08-20T07:18:36;100986.41;;;46.23;15.73
64238;BME280;57192;41.976;2.828;2022-08-20T07:21:02;100984.63;;;46.32;15.15
64238;BME280;57192;41.976;2.828;2022-08-20T07:23:28;100991.44;;;46.60;15.43
64238;BME280;57192;41.976;2.828;2022-08-20T07:25:55;100992.47;;;46.99;15.14
64238;BME280;57192;41.976;2.828;2022-08-20T07:28:24;100991.53;;;47.32;14.34
64238;BME280;57192;41.976;2.828;2022-08-20T07:30:50;100991.44;;;47.80;14.11
64238;BME280;57192;41.976;2.828;2022-08-20T07:33:35;100975.22;;;48.43;13.66
64238;BME280;57192;41.976;2.828;2022-08-20T07:36:03;100985.28;;;48.82;13.33
64238;BME280;57192;41.976;2.828;2022-08-20T07:38:30;100982.94;;;49.11;12.95
64238;BME280;57192;41.976;2.828;2022-08-20T07:40:59;100984.34;;;49.14;13.18
64238;BME280;57192;41.976;2.828;2022-08-20T07:43:25;100988.72;;;49.06;13.19
64238;BME280;57192;41.976;2.828;2022-08-20T07:45:51;100985.06;;;49.47;12.66
64238;BME280;57192;41.976;2.828;2022-08-20T07:48:21;100991.09;;;50.04;12.78
64238;BME280;57192;41.976;2.828;2022-08-20T07:50:50;100984.03;;;50.15;12.35
64238;BME280;57192;41.976;2.828;2022-08-20T07:53:15;100989.06;;;49.96;12.25
64238;BME280;57192;41.976;2.828;2022-08-20T07:55:41;100992.53;;;50.15;12.54
64238;BME280;57192;41.976;2.828;2022-08-20T07:58:11;100983.75;;;50.48;12.14
64238;BME280;57192;41.976;2.828;2022-08-20T08:00:37;100985.94;;;50.74;11.85
64238;BME280;57192;41.976;2.828;2022-08-20T08:03:03;100977.78;;;51.20;11.52
64238;BME280;57192;41.976;2.828;2022-08-20T08:05:30;100979.78;;;51.60;11.00
64238;BME280;57192;41.976;2.828;2022-08-20T08:07:56;100980.63;;;51.95;11.06
64238;BME280;57192;41.976;2.828;2022-08-20T08:10:23;100983.09;;;51.88;10.68
64238;BME280;57192;41.976;2.828;2022-08-20T08:12:52;100979.09;;;51.89;11.18
64238;BME280;57192;41.976;2.828;2022-08-20T08:15:22;100980.59;;;52.12;10.57
64238;BME280;57192;41.976;2.828;2022-08-20T08:17:50;100977.75;;;52.12;10.57
64238;BME280;57192;41.976;2.828;2022-08-20T08:20:17;100975.78;;;52.04;10.74
64238;BME280;57192;41.976;2.828;2022-08-20T08:22:45;100979.56;;;52.43;10.60
64238;BME280;57192;41.976;2.828;2022-08-20T08:25:11;100982.94;;;52.92;10.24
64238;BME280;57192;41.976;2.828;2022-08-20T08:27:39;100982.06;;;53.30;9.33
64238;BME280;57192;41.976;2.828;2022-08-20T08:30:06;100980.28;;;53.46;9.49
64238;BME280;57192;41.976;2.828;2022-08-20T08:32:34;100985.28;;;53.49;9.69
64238;BME280;57192;41.976;2.828;2022-08-20T08:35:04;100986.25;;;53.53;9.47
64238;BME280;57192;41.976;2.828;2022-08-20T08:37:32;100991.09;;;53.53;9.82
64238;BME280;57192;41.976;2.828;2022-08-20T08:39:57;100982.75;;;53.56;9.82
64238;BME280;57192;41.976;2.828;2022-08-20T08:42:37;100979.97;;;53.69;9.75
64238;BME280;57192;41.976;2.828;2022-08-20T08:45:06;100983.19;;;53.67;9.55
64238;BME280;57192;41.976;2.828;2022-08-20T08:47:35;100981.47;;;53.45;9.32
64238;BME280;57192;41.976;2.828;2022-08-20T08:50:04;100973.41;;;52.88;9.62
64238;BME280;57192;41.976;2.828;2022-08-20T08:52:32;100968.59;;;52.15;10.29
64238;BME280;57192;41.976;2.828;2022-08-20T08:55:05;100972.22;;;51.38;10.22
64238;BME280;57192;41.976;2.828;2022-08-20T08:57:31;100967.91;;;50.16;11.35
64238;BME280;57192;41.976;2.828;2022-08-20T09:00:07;100970.63;;;47.95;12.71
64238;BME280;57192;41.976;2.828;2022-08-20T09:02:36;100965.72;;;45.59;14.74
64238;BME280;57192;41.976;2.828;2022-08-20T09:05:15;100961.72;;;43.68;16.13
64238;BME280;57192;41.976;2.828;2022-08-20T09:07:44;100968.50;;;42.07;17.32
64238;BME280;57192;41.976;2.828;2022-08-20T09:10:12;100962.34;;;40.57;19.40
64238;BME280;57192;41.976;2.828;2022-08-20T09:12:38;59338.97;;;-144.63;100.00
64238;BME280;57192;41.976;2.828;2022-08-20T09:15:03;59338.97;;;-144.63;100.00
64238;BME280;57192;41.976;2.828;2022-08-20T09:17:29;59338.97;;;-144.63;100.00
64238;BME280;57192;41.976;2.828;2022-08-20T09:19:55;59338.97;;;-144.63;100.00
64238;BME280;57192;41.976;2.828;2022-08-20T09:22:22;59338.97;;;-144.63;100.00
64238;BME280;57192;41.976;2.828;2022-08-20T09:24:50;59338.97;;;-144.63;100.00
64238;BME280;57192;41.976;2.828;2022-08-20T09:27:16;59338.97;;;-144.63;100.00
64238;BME280;57192;41.976;2.828;2022-08-20T09:29:41;59338.97;;;-144.63;100.00
64238;BME280;57192;41.976;2.828;2022-08-20T09:32:08;59338.97;;;-144.63;100.00
64238;BME280;57192;41.976;2.828;2022-08-20T09:34:40;59338.97;;;-144.63;100.00
64238;BME280;57192;41.976;2.828;2022-08-20T09:37:07;59338.97;;;-144.63;100.00
64238;BME280;57192;41.976;2.828;2022-08-20T09:39:32;59338.97;;;-144.63;100.00
64238;BME280;57192;41.976;2.828;2022-08-20T09:42:19;59338.97;;;-144.63;100.00
64238;BME280;57192;41.976;2.828;2022-08-20T09:44:44;59338.97;;;-144.63;100.00
64238;BME280;57192;41.976;2.828;2022-08-20T09:47:10;59338.97;;;-144.63;100.00
64238;BME280;57192;41.976;2.828;2022-08-20T09:49:37;59338.97;;;-144.63;100.00
64238;BME280;57192;41.976;2.828;2022-08-20T09:52:05;59338.97;;;-144.63;100.00
64238;BME280;57192;41.976;2.828;2022-08-20T09:54:31;59338.97;;;-144.63;100.00
64238;BME280;57192;41.976;2.828;2022-08-20T09:57:00;59338.97;;;-144.63;100.00
64238;BME280;57192;41.976;2.828;2022-08-20T09:59:27;59338.97;;;-144.63;100.00
64238;BME280;57192;41.976;2.828;2022-08-20T10:01:54;59338.97;;;-144.63;100.00
64238;BME280;57192;41.976;2.828;2022-08-20T10:04:19;59338.97;;;-144.63;100.00
64238;BME280;57192;41.976;2.828;2022-08-20T10:06:46;59338.97;;;-144.63;100.00
64238;BME280;57192;41.976;2.828;2022-08-20T10:09:12;59338.97;;;-144.63;100.00
64238;BME280;57192;41.976;2.828;2022-08-20T10:11:37;59338.97;;;-144.63;100.00
64238;BME280;57192;41.976;2.828;2022-08-20T10:14:03;59338.97;;;-144.63;100.00
64238;BME280;57192;41.976;2.828;2022-08-20T10:16:28;59338.97;;;-144.63;100.00
64238;BME280;57192;41.976;2.828;2022-08-20T10:18:54;59338.97;;;-144.63;100.00
64238;BME280;57192;41.976;2.828;2022-08-20T10:21:19;59338.97;;;-144.63;100.00
64238;BME280;57192;41.976;2.828;2022-08-20T10:23:45;59338.97;;;-144.63;100.00
64238;BME280;57192;41.976;2.828;2022-08-20T10:26:11;59338.97;;;-144.63;100.00
64238;BME280;57192;41.976;2.828;2022-08-20T10:28:37;59338.97;;;-144.63;100.00
64238;BME280;57192;41.976;2.828;2022-08-20T10:31:07;59338.97;;;-144.63;100.00
64238;BME280;57192;41.976;2.828;2022-08-20T10:33:34;59338.97;;;-144.63;100.00
64238;BME280;57192;41.976;2.828;2022-08-20T10:36:25;59338.97;;;-144.63;100.00
64238;BME280;57192;41.976;2.828;2022-08-20T10:38:51;59338.97;;;-144.63;100.00
64238;BME280;57192;41.976;2.828;2022-08-20T10:41:17;59338.97;;;-144.63;100.00
64238;BME280;57192;41.976;2.828;2022-08-20T10:43:44;59338.97;;;-144.63;100.00
64238;BME280;57192;41.976;2.828;2022-08-20T10:46:10;59338.97;;;-144.63;100.00
64238;BME280;57192;41.976;2.828;2022-08-20T10:48:35;59338.97;;;-144.63;100.00
64238;BME280;57192;41.976;2.828;2022-08-20T10:51:01;59338.97;;;-144.63;100.00
64238;BME280;57192;41.976;2.828;2022-08-20T10:53:27;59338.97;;;-144.63;100.00
64238;BME280;57192;41.976;2.828;2022-08-20T10:55:53;59338.97;;;-144.63;100.00
64238;BME280;57192;41.976;2.828;2022-08-20T10:58:18;59338.97;;;-144.63;100.00
64238;BME280;57192;41.976;2.828;2022-08-20T11:00:44;59338.97;;;-144.63;100.00
64238;BME280;57192;41.976;2.828;2022-08-20T11:03:10;59338.97;;;-144.63;100.00
64238;BME280;57192;41.976;2.828;2022-08-20T11:05:36;59338.97;;;-144.63;100.00
64238;BME280;57192;41.976;2.828;2022-08-20T11:08:03;59338.97;;;-144.63;100.00
64238;BME280;57192;41.976;2.828;2022-08-20T11:10:31;59338.97;;;-144.63;100.00
64238;BME280;57192;41.976;2.828;2022-08-20T11:12:59;59338.97;;;-144.63;100.00
64238;BME280;57192;41.976;2.828;2022-08-20T11:15:24;59338.97;;;-144.63;100.00
64238;BME280;57192;41.976;2.828;2022-08-20T11:17:50;59338.97;;;-144.63;100.00
64238;BME280;57192;41.976;2.828;2022-08-20T11:20:18;59338.97;;;-144.63;100.00
64238;BME280;57192;41.976;2.828;2022-08-20T11:22:44;59338.97;;;-144.63;100.00
64238;BME280;57192;41.976;2.828;2022-08-20T11:25:10;59338.97;;;-144.63;100.00
64238;BME280;57192;41.976;2.828;2022-08-20T11:27:38;59338.97;;;-144.63;100.00
64238;BME280;57192;41.976;2.828;2022-08-20T11:30:07;59338.97;;;-144.63;100.00
64238;BME280;57192;41.976;2.828;2022-08-20T11:32:33;59338.97;;;-144.63;100.00
64238;BME280;57192;41.976;2.828;2022-08-20T11:34:58;59338.97;;;-144.63;100.00
64238;BME280;57192;41.976;2.828;2022-08-20T11:37:24;59338.97;;;-144.63;100.00
64238;BME280;57192;41.976;2.828;2022-08-20T11:39:50;59338.97;;;-144.63;100.00
64238;BME280;57192;41.976;2.828;2022-08-20T11:42:16;59338.97;;;-144.63;100.00
64238;BME280;57192;41.976;2.828;2022-08-20T11:44:41;59338.97;;;-144.63;100.00
64238;BME280;57192;41.976;2.828;2022-08-20T11:47:08;59338.97;;;-144.63;100.00
64238;BME280;57192;41.976;2.828;2022-08-20T11:49:35;59338.97;;;-144.63;100.00
64238;BME280;57192;41.976;2.828;2022-08-20T11:52:02;59338.97;;;-144.63;100.00
64238;BME280;57192;41.976;2.828;2022-08-20T11:54:28;59338.97;;;-144.63;100.00
64238;BME280;57192;41.976;2.828;2022-08-20T11:56:54;59338.97;;;-144.63;100.00
64238;BME280;57192;41.976;2.828;2022-08-20T11:59:24;59338.97;;;-144.63;100.00
64238;BME280;57192;41.976;2.828;2022-08-20T12:01:50;59338.97;;;-144.63;100.00
64238;BME280;57192;41.976;2.828;2022-08-20T12:04:18;59338.97;;;-144.63;100.00
64238;BME280;57192;41.976;2.828;2022-08-20T12:06:44;59338.97;;;-144.63;100.00
64238;BME280;57192;41.976;2.828;2022-08-20T12:09:09;59338.97;;;-144.63;100.00
64238;BME280;57192;41.976;2.828;2022-08-20T12:11:35;59338.97;;;-144.63;100.00
64238;BME280;57192;41.976;2.828;2022-08-20T12:14:00;59338.97;;;-144.63;100.00
64238;BME280;57192;41.976;2.828;2022-08-20T12:16:25;59338.97;;;-144.63;100.00
64238;BME280;57192;41.976;2.828;2022-08-20T12:18:51;59338.97;;;-144.63;100.00
64238;BME280;57192;41.976;2.828;2022-08-20T12:21:17;59338.97;;;-144.63;100.00
64238;BME280;57192;41.976;2.828;2022-08-20T12:23:42;59338.97;;;-144.63;100.00
64238;BME280;57192;41.976;2.828;2022-08-20T12:26:08;59338.97;;;-144.63;100.00
64238;BME280;57192;41.976;2.828;2022-08-20T12:28:33;59338.97;;;-144.63;100.00
64238;BME280;57192;41.976;2.828;2022-08-20T12:30:59;59338.97;;;-144.63;100.00
64238;BME280;57192;41.976;2.828;2022-08-20T12:33:24;59338.97;;;-144.63;100.00
64238;BME280;57192;41.976;2.828;2022-08-20T12:35:50;59338.97;;;-144.63;100.00
64238;BME280;57192;41.976;2.828;2022-08-20T12:38:16;59338.97;;;-144.63;100.00
64238;BME280;57192;41.976;2.828;2022-08-20T12:40:41;59338.97;;;-144.63;100.00
64238;BME280;57192;41.976;2.828;2022-08-20T12:43:07;59338.97;;;-144.63;100.00
64238;BME280;57192;41.976;2.828;2022-08-20T12:45:34;59338.97;;;-144.63;100.00